createdAt,value
2018-05-13T00:16:42.178Z,16.66
2018-05-13T00:37:17.448Z,16.36
2018-05-13T00:57:50.873Z,16.48
2018-05-13T01:18:24.918Z,16.24
2018-05-13T01:39:00.422Z,16.14
2018-05-13T01:59:34.238Z,15.95
2018-05-13T02:20:07.903Z,15.65
2018-05-13T02:40:40.782Z,15.91
2018-05-13T03:01:15.138Z,15.67
2018-05-13T03:21:48.563Z,15.61
2018-05-13T03:42:25.740Z,15.35
2018-05-13T04:02:59.724Z,15.29
2018-05-13T04:23:34.180Z,15.51
2018-05-13T04:44:07.198Z,15.68
2018-05-13T05:04:40.317Z,15.49
2018-05-13T05:25:17.854Z,15.76
2018-05-13T05:45:53.936Z,16.04
2018-05-13T06:06:27.049Z,15.84
2018-05-13T06:27:02.329Z,15.91
2018-05-13T06:47:37.605Z,16.18
2018-05-13T07:08:16.024Z,16.36
2018-05-13T07:28:47.837Z,16.55
2018-05-13T07:49:23.110Z,16.44
2018-05-13T08:09:58.385Z,16.54
2018-05-13T08:30:33.658Z,16.31
2018-05-13T08:51:08.935Z,16.02
2018-05-13T09:11:42.049Z,16.35
2018-05-13T09:32:15.479Z,16.21
2018-05-13T09:52:51.821Z,16.78
2018-05-13T10:13:24.807Z,16.50
2018-05-13T10:34:03.296Z,16.74
2018-05-13T10:54:36.497Z,17.06
2018-05-13T11:15:10.607Z,17.72
2018-05-13T11:35:43.729Z,18.32
2018-05-13T11:56:20.850Z,18.49
2018-05-13T12:16:55.195Z,18.39
2018-05-13T12:22:33.831Z,18.30
2018-05-13T12:25:02.322Z,18.24
2018-05-13T12:27:30.906Z,18.24
2018-05-13T12:29:59.299Z,18.18
2018-05-13T12:32:27.707Z,18.17
2018-05-13T12:34:57.026Z,18.06
2018-05-13T12:37:25.381Z,18.16
2018-05-13T12:39:53.774Z,18.18
2018-05-13T12:42:23.106Z,18.10
2018-05-13T12:44:52.386Z,18.06
2018-05-13T12:47:20.758Z,17.99
2018-05-13T12:49:52.512Z,18.05
2018-05-13T12:52:20.867Z,18.01
2018-05-13T12:54:49.249Z,17.89
2018-05-13T12:57:17.766Z,17.82
2018-05-13T12:59:46.001Z,17.82
2018-05-13T13:02:14.393Z,17.78
2018-05-13T13:04:42.777Z,17.68
2018-05-13T13:07:11.140Z,17.61
2018-05-13T13:09:45.336Z,17.60
2018-05-13T13:12:13.753Z,17.50
2018-05-13T13:14:42.131Z,17.58
2018-05-13T13:17:10.537Z,17.55
2018-05-13T13:19:38.893Z,17.51
2018-05-13T13:22:07.324Z,17.40
2018-05-13T13:24:35.679Z,17.26
2018-05-13T13:27:05.861Z,17.28
2018-05-13T13:29:34.296Z,17.34
2018-05-13T13:32:02.619Z,17.30
2018-05-13T13:34:31.020Z,17.23
2018-05-13T13:36:59.405Z,17.32
2018-05-13T13:39:27.780Z,17.27
2018-05-13T13:41:56.171Z,17.36
2018-05-13T13:44:24.549Z,17.38
2018-05-13T13:46:53.847Z,17.53
2018-05-13T13:49:22.226Z,17.55
2018-05-13T13:51:50.625Z,17.51
2018-05-13T13:54:18.979Z,17.54
2018-05-13T13:56:47.364Z,17.47
2018-05-13T13:59:15.742Z,17.56
2018-05-13T14:01:44.120Z,17.63
2018-05-13T14:04:12.500Z,17.62
2018-05-13T14:06:41.830Z,17.58
2018-05-13T14:09:10.175Z,17.56
2018-05-13T14:11:38.562Z,17.70
2018-05-13T14:14:06.968Z,17.78
2018-05-13T14:16:35.319Z,17.79
2018-05-13T14:19:03.708Z,17.80
2018-05-13T14:21:32.089Z,17.50
2018-05-13T14:24:00.458Z,17.24
2018-05-13T14:26:29.799Z,17.22
2018-05-13T14:28:59.990Z,17.31
2018-05-13T14:31:28.365Z,17.46
2018-05-13T14:34:00.460Z,17.57
2018-05-13T14:36:29.723Z,17.64
2018-05-13T14:38:58.125Z,17.69
2018-05-13T14:41:26.502Z,17.71
2018-05-13T14:43:54.800Z,17.76
2018-05-13T14:46:23.084Z,17.78
2018-05-13T14:48:51.347Z,17.79
2018-05-13T14:51:20.009Z,17.78
2018-05-13T14:53:48.312Z,17.62
2018-05-13T14:56:17.069Z,17.62
2018-05-13T14:58:45.363Z,17.71
2018-05-13T15:01:13.631Z,17.60
2018-05-13T15:03:41.933Z,17.61
2018-05-13T15:06:10.252Z,17.56
2018-05-13T15:08:39.303Z,17.61
2018-05-13T15:11:07.990Z,17.54
2018-05-13T15:13:36.298Z,17.59
2018-05-13T15:16:04.597Z,17.55
2018-05-13T15:18:32.913Z,17.61
2018-05-13T15:21:01.184Z,17.69
2018-05-13T15:23:29.454Z,17.68
2018-05-13T15:25:57.763Z,17.45
2018-05-13T15:28:26.042Z,17.53
2018-05-13T15:30:54.329Z,17.49
2018-05-13T15:33:22.612Z,17.52
2018-05-13T15:35:50.898Z,17.49
2018-05-13T15:38:19.191Z,17.33
2018-05-13T15:40:47.467Z,17.29
2018-05-13T15:43:15.773Z,17.24
2018-05-13T15:45:44.776Z,17.09
2018-05-13T15:48:13.061Z,17.09
2018-05-13T15:50:41.776Z,17.08
2018-05-13T15:53:10.049Z,17.08
2018-05-13T15:55:38.346Z,17.10
2018-05-13T15:58:06.631Z,16.98
2018-05-13T16:00:34.886Z,16.90
2018-05-13T16:03:04.724Z,16.87
2018-05-13T16:05:34.188Z,16.82
2018-05-13T16:08:02.522Z,16.87
2018-05-13T16:10:30.806Z,16.80
2018-05-13T16:12:59.073Z,16.77
2018-05-13T16:15:28.135Z,16.71
2018-05-13T16:17:56.403Z,16.61
2018-05-13T16:20:24.708Z,16.50
2018-05-13T16:22:54.997Z,16.58
2018-05-13T16:25:23.981Z,16.57
2018-05-13T16:27:52.680Z,16.47
2018-05-13T16:30:20.969Z,16.27
2018-05-13T16:32:50.071Z,16.27
2018-05-13T16:35:18.372Z,16.24
2018-05-13T16:37:47.745Z,16.26
2018-05-13T16:40:16.019Z,16.20
2018-05-13T16:42:44.287Z,16.24
2018-05-13T16:45:12.566Z,16.18
2018-05-13T16:47:40.833Z,16.25
2018-05-13T16:50:09.133Z,16.17
2018-05-13T16:52:37.439Z,16.11
2018-05-13T16:55:06.109Z,15.98
2018-05-13T16:57:34.431Z,15.92
2018-05-13T17:00:03.485Z,15.91
2018-05-13T17:02:31.773Z,15.76
2018-05-13T17:05:00.578Z,15.82
2018-05-13T17:07:29.612Z,15.84
2018-05-13T17:09:57.952Z,15.86
2018-05-13T17:12:26.990Z,15.89
2018-05-13T17:14:55.296Z,15.92
2018-05-13T17:17:24.025Z,15.84
2018-05-13T17:19:52.252Z,15.89
2018-05-13T17:22:20.611Z,15.86
2018-05-13T17:24:48.891Z,15.88
2018-05-13T17:27:17.144Z,15.90
2018-05-13T17:29:45.547Z,15.92
2018-05-13T17:32:13.795Z,15.91
2018-05-13T17:34:42.141Z,15.89
2018-05-13T17:37:10.427Z,15.87
2018-05-13T17:39:38.731Z,15.92
2018-05-13T17:42:07.017Z,15.88
2018-05-13T17:44:35.318Z,15.84
2018-05-13T17:47:03.580Z,15.84
2018-05-13T17:49:31.874Z,15.79
2018-05-13T17:52:00.175Z,15.68
2018-05-13T17:54:29.308Z,15.79
2018-05-13T17:56:57.581Z,15.80
2018-05-13T17:59:25.890Z,15.72
2018-05-13T18:01:54.201Z,15.66
2018-05-13T18:04:22.545Z,15.71
2018-05-13T18:06:50.932Z,15.73
2018-05-13T18:09:19.178Z,15.74
2018-05-13T18:11:47.481Z,15.71
2018-05-13T18:14:15.750Z,15.69
2018-05-13T18:16:44.069Z,15.58
2018-05-13T18:19:12.346Z,15.57
2018-05-13T18:21:40.733Z,15.69
2018-05-13T18:24:09.739Z,15.60
2018-05-13T18:26:38.049Z,15.62
2018-05-13T18:29:07.131Z,15.54
2018-05-13T18:31:35.444Z,15.59
2018-05-13T18:34:03.777Z,15.58
2018-05-13T18:36:32.061Z,15.53
2018-05-13T18:39:00.431Z,15.57
2018-05-13T18:41:28.684Z,15.57
2018-05-13T18:43:56.986Z,15.54
2018-05-13T18:46:25.365Z,15.44
2018-05-13T18:48:53.744Z,15.42
2018-05-13T18:51:22.192Z,15.40
2018-05-13T18:53:50.507Z,15.36
2018-05-13T18:56:18.806Z,15.34
2018-05-13T18:58:47.149Z,15.39
2018-05-13T19:01:15.511Z,15.37
2018-05-13T19:03:43.849Z,15.33
2018-05-13T19:06:14.759Z,15.37
2018-05-13T19:08:43.171Z,15.40
2018-05-13T19:11:12.232Z,15.35
2018-05-13T19:13:40.546Z,15.32
2018-05-13T19:16:08.818Z,15.32
2018-05-13T19:18:37.149Z,15.31
2018-05-13T19:21:05.513Z,15.29
2018-05-13T19:23:33.805Z,15.30
2018-05-13T19:26:02.249Z,15.27
2018-05-13T19:28:31.307Z,15.26
2018-05-13T19:30:59.682Z,15.31
2018-05-13T19:33:28.689Z,15.31
2018-05-13T19:35:56.968Z,15.37
2018-05-13T19:38:25.291Z,15.29
2018-05-13T19:40:53.575Z,15.35
2018-05-13T19:43:21.880Z,15.32
2018-05-13T19:45:50.176Z,15.27
2018-05-13T19:48:18.830Z,15.28
2018-05-13T19:50:47.147Z,15.31
2018-05-13T19:53:15.910Z,15.25
2018-05-13T19:55:44.203Z,15.22
2018-05-13T19:58:12.538Z,15.28
2018-05-13T20:00:40.819Z,15.24
2018-05-13T20:03:09.264Z,15.14
2018-05-13T20:05:37.437Z,15.16
2018-05-13T20:08:05.750Z,15.16
2018-05-13T20:10:34.061Z,15.13
2018-05-13T20:13:02.343Z,15.13
2018-05-13T20:15:31.473Z,15.17
2018-05-13T20:17:59.958Z,15.20
2018-05-13T20:20:28.380Z,15.21
2018-05-13T20:23:14.300Z,15.24
2018-05-13T20:25:42.589Z,15.19
2018-05-13T20:28:10.906Z,15.18
2018-05-13T20:30:39.241Z,15.12
2018-05-13T20:33:07.590Z,15.14
2018-05-13T20:35:35.892Z,15.13
2018-05-13T20:38:04.192Z,15.07
2018-05-13T20:40:32.477Z,14.94
2018-05-13T20:43:00.767Z,14.99
2018-05-13T20:45:29.847Z,15.00
2018-05-13T20:47:58.130Z,14.94
2018-05-13T20:50:26.497Z,14.94
2018-05-13T20:52:54.817Z,14.92
2018-05-13T20:55:23.072Z,14.79
2018-05-13T20:57:51.489Z,14.73
2018-05-13T21:00:19.730Z,14.65
2018-05-13T21:02:48.831Z,14.61
2018-05-13T21:05:17.915Z,14.54
2018-05-13T21:07:46.161Z,14.50
2018-05-13T21:10:14.449Z,14.44
2018-05-13T21:12:42.725Z,14.38
2018-05-13T21:15:11.023Z,14.45
2018-05-13T21:17:39.321Z,14.51
2018-05-13T21:20:07.632Z,14.42
2018-05-13T21:22:35.917Z,14.44
2018-05-13T21:25:04.190Z,14.38
2018-05-13T21:27:32.492Z,14.37
2018-05-13T21:30:00.860Z,14.41
2018-05-13T21:32:29.129Z,14.41
2018-05-13T21:34:57.405Z,14.43
2018-05-13T21:37:25.713Z,14.37
2018-05-13T21:39:53.990Z,14.42
2018-05-13T21:42:23.778Z,14.36
2018-05-13T21:44:52.076Z,14.36
2018-05-13T21:47:20.375Z,14.35
2018-05-13T21:49:48.675Z,14.38
2018-05-13T21:52:16.983Z,14.41
2018-05-13T21:54:45.261Z,14.42
2018-05-13T22:15:19.703Z,14.43
2018-05-13T22:35:52.824Z,14.39
2018-05-13T22:56:27.365Z,14.39
2018-05-13T23:17:02.588Z,14.43
2018-05-13T23:37:35.831Z,14.58
2018-05-13T23:58:07.775Z,14.43
